createdAt,value
2018-05-16T00:02:24.769Z,46.71
2018-05-16T00:04:51.452Z,46.74
2018-05-16T00:07:18.124Z,46.70
2018-05-16T00:09:44.801Z,46.79
2018-05-16T00:12:11.517Z,46.84
2018-05-16T00:14:38.167Z,46.87
2018-05-16T00:17:04.886Z,46.92
2018-05-16T00:19:31.567Z,46.91
2018-05-16T00:21:58.214Z,46.86
2018-05-16T00:24:24.946Z,46.84
2018-05-16T00:26:51.493Z,46.91
2018-05-16T00:29:18.137Z,46.80
2018-05-16T00:31:44.777Z,46.89
2018-05-16T00:34:11.413Z,46.91
2018-05-16T00:36:38.048Z,46.91
2018-05-16T00:39:04.690Z,46.90
2018-05-16T00:41:31.329Z,46.85
2018-05-16T00:43:57.966Z,46.88
2018-05-16T00:46:24.596Z,46.94
2018-05-16T00:48:51.229Z,46.83
2018-05-16T00:51:17.879Z,46.90
2018-05-16T00:53:44.507Z,46.93
2018-05-16T00:56:11.138Z,46.93
2018-05-16T00:58:37.778Z,46.92
2018-05-16T01:01:04.409Z,46.87
2018-05-16T01:03:31.042Z,46.95
2018-05-16T01:05:57.710Z,46.98
2018-05-16T01:08:24.337Z,47.05
2018-05-16T01:10:50.974Z,46.95
2018-05-16T01:13:17.621Z,47.06
2018-05-16T01:15:44.250Z,47.05
2018-05-16T01:18:10.895Z,47.07
2018-05-16T01:20:37.525Z,47.10
2018-05-16T01:23:04.173Z,47.03
2018-05-16T01:25:30.808Z,47.11
2018-05-16T01:27:57.449Z,47.13
2018-05-16T01:30:24.141Z,47.17
2018-05-16T01:32:50.778Z,47.20
2018-05-16T01:35:17.423Z,47.12
2018-05-16T01:37:44.058Z,47.15
2018-05-16T01:40:10.748Z,47.19
2018-05-16T01:42:37.358Z,47.19
2018-05-16T01:45:03.998Z,47.20
2018-05-16T01:47:30.633Z,47.06
2018-05-16T01:49:57.290Z,47.12
2018-05-16T01:52:23.925Z,47.14
2018-05-16T01:54:50.563Z,47.05
2018-05-16T01:57:17.215Z,47.01
2018-05-16T01:59:43.866Z,46.89
2018-05-16T02:02:10.530Z,46.88
2018-05-16T02:04:37.135Z,46.93
2018-05-16T02:07:03.784Z,46.82
2018-05-16T02:09:30.478Z,46.82
2018-05-16T02:11:57.105Z,46.81
2018-05-16T02:14:23.743Z,46.76
2018-05-16T02:16:50.474Z,46.69
2018-05-16T02:19:17.116Z,46.61
2018-05-16T02:21:43.760Z,46.61
2018-05-16T02:24:10.398Z,46.58
2018-05-16T02:26:37.035Z,46.51
2018-05-16T02:29:03.671Z,46.53
2018-05-16T02:31:30.330Z,46.52
2018-05-16T02:33:56.945Z,46.42
2018-05-16T02:36:23.581Z,46.47
2018-05-16T02:38:50.224Z,46.45
2018-05-16T02:41:16.864Z,46.45
2018-05-16T02:43:43.506Z,46.52
2018-05-16T02:46:10.153Z,46.39
2018-05-16T02:48:36.805Z,46.34
2018-05-16T02:51:03.443Z,46.28
2018-05-16T02:53:30.079Z,46.35
2018-05-16T02:55:56.715Z,46.28
2018-05-16T02:58:23.347Z,46.26
2018-05-16T03:00:49.991Z,46.30
2018-05-16T03:03:16.637Z,46.30
2018-05-16T03:05:43.277Z,46.35
2018-05-16T03:08:09.944Z,46.24
2018-05-16T03:10:38.448Z,45.78
2018-05-16T03:13:03.179Z,46.14
2018-05-16T03:15:29.810Z,46.29
2018-05-16T03:17:56.450Z,46.36
2018-05-16T03:20:23.088Z,46.54
2018-05-16T03:22:49.731Z,46.40
2018-05-16T03:25:16.374Z,46.54
2018-05-16T03:27:43.016Z,46.32
2018-05-16T03:30:09.655Z,46.65
2018-05-16T03:32:36.327Z,46.46
2018-05-16T03:35:02.935Z,46.95
2018-05-16T03:37:29.576Z,47.20
2018-05-16T03:39:56.206Z,47.19
2018-05-16T03:42:22.887Z,47.60
2018-05-16T03:44:49.529Z,47.21
2018-05-16T03:47:16.162Z,46.78
2018-05-16T03:49:42.798Z,46.78
2018-05-16T03:52:09.445Z,46.97
2018-05-16T03:54:36.085Z,46.60
2018-05-16T03:57:02.723Z,46.57
2018-05-16T03:59:29.361Z,46.54
2018-05-16T04:01:56.013Z,46.38
2018-05-16T04:04:22.658Z,46.31
2018-05-16T04:06:49.291Z,46.30
2018-05-16T04:09:15.934Z,46.25
2018-05-16T04:11:42.565Z,45.84
2018-05-16T04:14:09.209Z,45.76
2018-05-16T04:16:35.886Z,45.64
2018-05-16T04:19:02.565Z,45.07
2018-05-16T04:21:29.195Z,44.77
2018-05-16T04:23:55.832Z,44.51
2018-05-16T04:26:22.486Z,44.60
2018-05-16T04:28:49.176Z,44.48
2018-05-16T04:31:15.762Z,44.29
2018-05-16T04:33:42.408Z,44.11
2018-05-16T04:36:09.036Z,43.83
2018-05-16T04:38:35.669Z,43.77
2018-05-16T04:41:02.340Z,43.45
2018-05-16T04:43:28.986Z,43.34
2018-05-16T04:45:55.637Z,43.22
2018-05-16T04:48:22.282Z,42.96
2018-05-16T04:50:48.922Z,42.83
2018-05-16T04:53:15.583Z,42.51
2018-05-16T04:55:43.583Z,42.42
2018-05-16T04:58:08.904Z,42.11
2018-05-16T05:00:35.542Z,42.14
2018-05-16T05:03:02.196Z,42.22
2018-05-16T05:05:28.839Z,42.25
2018-05-16T05:07:55.476Z,42.10
2018-05-16T05:10:22.114Z,41.88
2018-05-16T05:12:48.802Z,41.74
2018-05-16T05:15:15.434Z,41.82
2018-05-16T05:17:42.072Z,42.14
2018-05-16T05:20:08.716Z,41.47
2018-05-16T05:22:35.367Z,42.20
2018-05-16T05:25:02.013Z,42.07
2018-05-16T05:27:28.650Z,42.17
2018-05-16T05:29:55.314Z,42.42
2018-05-16T05:32:22.168Z,42.66
2018-05-16T05:34:48.847Z,42.37
2018-05-16T05:37:15.486Z,42.51
2018-05-16T05:39:42.141Z,42.27
2018-05-16T05:42:08.782Z,42.28
2018-05-16T05:44:35.436Z,41.91
2018-05-16T05:47:02.127Z,42.45
2018-05-16T05:49:28.726Z,42.21
2018-05-16T05:51:55.380Z,42.07
2018-05-16T05:54:22.024Z,41.88
2018-05-16T05:56:48.808Z,42.08
2018-05-16T05:59:15.446Z,42.36
2018-05-16T06:01:42.234Z,41.88
2018-05-16T06:04:08.914Z,41.66
2018-05-16T06:06:35.505Z,42.55
2018-05-16T06:09:02.145Z,42.70
2018-05-16T06:11:28.782Z,42.74
2018-05-16T06:13:55.447Z,42.54
2018-05-16T06:16:22.094Z,42.58
2018-05-16T06:18:48.744Z,41.99
2018-05-16T06:21:15.388Z,41.59
2018-05-16T06:23:42.163Z,41.40
2018-05-16T06:26:08.906Z,41.19
2018-05-16T06:28:35.608Z,40.40
2018-05-16T06:31:02.436Z,40.29
2018-05-16T06:33:29.101Z,40.32
2018-05-16T06:35:55.725Z,39.84
2018-05-16T06:38:23.373Z,39.26
2018-05-16T06:40:50.061Z,39.52
2018-05-16T06:43:16.702Z,39.61
2018-05-16T06:45:43.378Z,39.65
2018-05-16T06:48:10.024Z,39.98
2018-05-16T06:50:36.721Z,39.70
2018-05-16T06:53:03.362Z,39.35
2018-05-16T06:55:30.006Z,39.54
2018-05-16T06:57:56.685Z,38.61
2018-05-16T07:00:23.291Z,38.92
2018-05-16T07:02:49.967Z,38.91
2018-05-16T07:05:16.581Z,39.13
2018-05-16T07:07:43.225Z,39.99
2018-05-16T07:10:09.880Z,40.31
2018-05-16T07:12:36.526Z,39.86
2018-05-16T07:15:03.169Z,39.86
2018-05-16T07:17:29.822Z,39.90
2018-05-16T07:19:56.470Z,39.45
2018-05-16T07:22:23.109Z,39.16
2018-05-16T07:24:49.746Z,39.77
2018-05-16T07:27:16.403Z,38.72
2018-05-16T07:29:43.050Z,39.28
2018-05-16T07:32:09.690Z,38.93
2018-05-16T07:34:36.352Z,38.65
2018-05-16T07:37:03.129Z,38.15
2018-05-16T07:39:29.779Z,38.30
2018-05-16T07:41:56.432Z,38.45
2018-05-16T07:44:23.071Z,38.25
2018-05-16T07:46:49.764Z,38.94
2018-05-16T07:49:16.427Z,39.63
2018-05-16T07:51:43.072Z,40.32
2018-05-16T07:54:14.074Z,40.75
2018-05-16T07:56:39.169Z,41.12
2018-05-16T07:59:05.838Z,40.13
2018-05-16T08:01:32.469Z,40.49
2018-05-16T08:03:59.177Z,40.42
2018-05-16T08:06:28.688Z,40.07
2018-05-16T08:08:55.397Z,40.32
2018-05-16T08:11:22.046Z,40.55
2018-05-16T08:13:50.758Z,40.82
2018-05-16T08:16:17.413Z,41.64
2018-05-16T08:18:44.062Z,41.40
2018-05-16T08:21:10.760Z,40.86
2018-05-16T08:23:37.409Z,40.73
2018-05-16T08:26:04.038Z,41.07
2018-05-16T08:28:30.725Z,40.83
2018-05-16T08:30:57.448Z,41.54
2018-05-16T08:33:24.128Z,40.65
2018-05-16T08:35:50.807Z,39.83
2018-05-16T08:38:18.027Z,39.16
2018-05-16T08:40:44.732Z,39.48
2018-05-16T08:43:11.430Z,39.75
2018-05-16T08:45:38.067Z,39.53
2018-05-16T08:48:04.745Z,39.96
2018-05-16T08:50:31.478Z,39.50
2018-05-16T08:52:58.119Z,39.63
2018-05-16T08:55:24.758Z,39.10
2018-05-16T08:57:51.409Z,38.90
2018-05-16T09:00:18.040Z,38.85
2018-05-16T09:02:44.691Z,39.46
2018-05-16T09:05:11.370Z,39.79
2018-05-16T09:07:38.012Z,40.36
2018-05-16T09:10:04.775Z,41.00
2018-05-16T09:12:31.419Z,40.25
2018-05-16T09:14:58.112Z,39.71
2018-05-16T09:17:24.881Z,39.43
2018-05-16T09:19:51.444Z,39.30
2018-05-16T09:22:18.109Z,38.35
2018-05-16T09:24:44.751Z,39.01
2018-05-16T09:27:11.437Z,39.69
2018-05-16T09:29:38.078Z,39.06
2018-05-16T09:32:04.712Z,38.56
2018-05-16T09:34:31.397Z,38.14
2018-05-16T09:36:58.060Z,37.86
2018-05-16T09:39:24.739Z,37.36
2018-05-16T09:41:51.379Z,36.75
2018-05-16T09:44:18.141Z,37.49
2018-05-16T09:46:44.791Z,37.18
2018-05-16T09:49:11.481Z,37.43
2018-05-16T09:51:38.121Z,36.90
2018-05-16T09:54:04.803Z,37.04
2018-05-16T09:56:31.485Z,36.85
2018-05-16T09:58:58.157Z,36.50
2018-05-16T10:01:24.770Z,36.24
2018-05-16T10:03:51.411Z,36.77
2018-05-16T10:06:18.061Z,36.50
2018-05-16T10:08:44.697Z,36.07
2018-05-16T10:11:11.426Z,35.83
2018-05-16T10:13:38.027Z,36.37
2018-05-16T10:16:04.702Z,36.44
2018-05-16T10:18:31.353Z,36.79
2018-05-16T10:20:57.987Z,36.29
2018-05-16T10:23:24.675Z,35.96
2018-05-16T10:25:51.342Z,34.09
2018-05-16T10:28:20.626Z,35.18
2018-05-16T10:30:47.422Z,35.31
2018-05-16T10:33:15.053Z,35.40
2018-05-16T10:35:41.724Z,35.38
2018-05-16T10:38:08.535Z,34.64
2018-05-16T10:40:35.174Z,34.57
2018-05-16T10:43:01.827Z,35.16
2018-05-16T10:45:28.652Z,35.28
2018-05-16T10:47:55.289Z,35.80
2018-05-16T10:50:21.968Z,35.34
2018-05-16T10:52:48.617Z,34.80
2018-05-16T10:55:15.338Z,33.98
2018-05-16T10:57:41.978Z,34.06
2018-05-16T11:00:08.743Z,35.01
2018-05-16T11:02:35.389Z,34.74
2018-05-16T11:05:02.055Z,34.25
2018-05-16T11:07:28.715Z,33.99
2018-05-16T11:09:55.354Z,34.56
2018-05-16T11:12:21.995Z,34.45
2018-05-16T11:14:48.692Z,34.69
2018-05-16T11:17:15.364Z,34.59
2018-05-16T11:19:43.475Z,34.12
2018-05-16T11:22:08.636Z,33.34
2018-05-16T11:24:35.288Z,33.85
2018-05-16T11:27:01.992Z,34.38
2018-05-16T11:29:28.790Z,34.90
2018-05-16T11:31:55.485Z,34.21
2018-05-16T11:34:22.385Z,33.52
2018-05-16T11:36:49.041Z,33.30
2018-05-16T11:39:15.816Z,34.18
2018-05-16T11:41:42.465Z,34.19
2018-05-16T11:44:09.126Z,34.37
2018-05-16T11:46:35.798Z,33.83
2018-05-16T11:49:02.456Z,33.39
2018-05-16T11:51:29.432Z,32.73
2018-05-16T11:53:56.051Z,33.73
2018-05-16T11:56:22.710Z,34.50
2018-05-16T11:58:49.399Z,33.50
2018-05-16T12:01:16.081Z,33.02
2018-05-16T12:03:42.806Z,32.53
2018-05-16T12:06:09.477Z,32.62
2018-05-16T12:08:36.082Z,33.48
2018-05-16T12:11:02.736Z,33.73
2018-05-16T12:13:29.407Z,32.96
2018-05-16T12:15:56.015Z,32.51
2018-05-16T12:18:22.662Z,31.55
2018-05-16T12:20:49.453Z,31.64
2018-05-16T12:23:16.129Z,31.55
2018-05-16T12:25:42.735Z,31.30
2018-05-16T12:28:09.432Z,31.32
2018-05-16T12:30:36.054Z,32.19
2018-05-16T12:33:02.729Z,32.14
2018-05-16T12:35:29.366Z,31.80
2018-05-16T12:37:56.002Z,31.53
2018-05-16T12:40:22.779Z,30.96
2018-05-16T12:42:49.537Z,31.06
2018-05-16T12:45:16.161Z,31.65
2018-05-16T12:47:45.573Z,32.12
2018-05-16T12:50:12.259Z,31.95
2018-05-16T12:52:39.012Z,31.62
2018-05-16T12:55:05.691Z,31.32
2018-05-16T12:57:32.301Z,31.45
2018-05-16T13:00:01.321Z,32.36
2018-05-16T13:02:27.916Z,33.42
2018-05-16T13:04:54.597Z,32.20
2018-05-16T13:07:21.265Z,31.94
2018-05-16T13:09:48.014Z,31.54
2018-05-16T13:12:14.652Z,31.82
2018-05-16T13:14:41.374Z,32.70
2018-05-16T13:17:08.022Z,33.14
2018-05-16T13:19:34.688Z,32.47
2018-05-16T13:22:01.379Z,31.91
2018-05-16T13:24:28.027Z,31.62
2018-05-16T13:26:54.748Z,31.62
2018-05-16T13:29:21.419Z,32.22
2018-05-16T13:31:48.078Z,32.73
2018-05-16T13:34:14.731Z,32.65
2018-05-16T13:36:41.454Z,32.22
2018-05-16T13:39:08.133Z,32.10
2018-05-16T13:41:34.850Z,31.64
2018-05-16T13:44:01.467Z,31.64
2018-05-16T13:46:28.215Z,31.92
2018-05-16T13:48:54.777Z,32.60
2018-05-16T13:51:21.488Z,33.07
2018-05-16T13:53:48.135Z,32.75
2018-05-16T13:56:14.758Z,32.32
2018-05-16T13:58:41.399Z,31.96
2018-05-16T14:01:08.149Z,31.29
2018-05-16T14:03:34.851Z,32.30
2018-05-16T14:06:01.534Z,32.66
2018-05-16T14:08:28.169Z,32.20
2018-05-16T14:10:54.855Z,31.85
2018-05-16T14:13:21.493Z,31.54
2018-05-16T14:15:48.142Z,31.05
2018-05-16T14:18:14.817Z,31.83
2018-05-16T14:20:41.651Z,32.21
2018-05-16T14:23:08.338Z,31.87
2018-05-16T14:25:35.028Z,31.36
2018-05-16T14:28:01.746Z,31.10
2018-05-16T14:30:28.745Z,30.84
2018-05-16T14:32:55.348Z,30.05
2018-05-16T14:35:22.004Z,31.06
2018-05-16T14:37:48.657Z,31.43
2018-05-16T14:40:15.298Z,31.65
2018-05-16T14:42:42.056Z,31.25
2018-05-16T14:45:08.601Z,30.92
2018-05-16T14:47:35.254Z,30.72
2018-05-16T14:50:01.984Z,31.28
2018-05-16T14:52:28.620Z,31.64
2018-05-16T14:54:56.658Z,31.68
2018-05-16T14:57:21.894Z,31.21
2018-05-16T14:59:48.596Z,30.77
2018-05-16T15:02:15.662Z,30.56
2018-05-16T15:04:42.378Z,30.37
2018-05-16T15:07:09.003Z,31.42
2018-05-16T15:09:35.641Z,31.83
2018-05-16T15:12:02.295Z,31.08
2018-05-16T15:14:28.945Z,30.62
2018-05-16T15:16:55.636Z,30.27
2018-05-16T15:19:22.274Z,29.70
2018-05-16T15:21:48.930Z,30.21
2018-05-16T15:24:15.580Z,30.01
2018-05-16T15:26:42.219Z,30.10
2018-05-16T15:29:08.903Z,30.16
2018-05-16T15:31:35.605Z,30.73
2018-05-16T15:34:02.242Z,31.62
2018-05-16T15:36:28.882Z,31.19
2018-05-16T15:38:55.562Z,30.65
2018-05-16T15:41:22.316Z,30.38
2018-05-16T15:43:48.999Z,30.26
2018-05-16T15:46:15.670Z,30.04
2018-05-16T15:48:42.319Z,29.87
2018-05-16T15:51:09.004Z,29.77
2018-05-16T15:53:35.688Z,29.51
2018-05-16T15:56:02.319Z,29.43
2018-05-16T15:58:28.989Z,29.46
2018-05-16T16:00:55.613Z,29.46
2018-05-16T16:03:22.261Z,29.66
2018-05-16T16:05:48.897Z,29.49
2018-05-16T16:08:15.683Z,29.34
2018-05-16T16:10:42.217Z,29.02
2018-05-16T16:13:08.851Z,28.76
2018-05-16T16:15:35.501Z,28.66
2018-05-16T16:18:02.134Z,28.56
2018-05-16T16:20:28.770Z,28.50
2018-05-16T16:22:55.449Z,28.42
2018-05-16T16:25:22.053Z,28.51
2018-05-16T16:27:48.726Z,29.45
2018-05-16T16:30:15.346Z,29.37
2018-05-16T16:32:42.141Z,29.04
2018-05-16T16:35:08.779Z,28.79
2018-05-16T16:37:35.412Z,28.53
2018-05-16T16:40:03.418Z,28.37
2018-05-16T16:42:28.690Z,28.11
2018-05-16T16:44:55.427Z,28.06
2018-05-16T16:47:22.019Z,28.00
2018-05-16T16:49:48.785Z,27.69
2018-05-16T16:52:15.473Z,27.89
2018-05-16T16:54:42.115Z,27.42
2018-05-16T16:57:08.918Z,27.40
2018-05-16T16:59:35.490Z,27.47
2018-05-16T17:02:02.140Z,27.47
2018-05-16T17:04:28.780Z,27.51
2018-05-16T17:06:55.422Z,27.28
2018-05-16T17:09:22.138Z,27.09
2018-05-16T17:11:48.746Z,26.78
2018-05-16T17:14:15.384Z,26.88
2018-05-16T17:16:42.018Z,26.91
2018-05-16T17:19:08.675Z,26.84
2018-05-16T17:21:35.301Z,26.67
2018-05-16T17:24:01.985Z,26.49
2018-05-16T17:26:28.585Z,26.81
2018-05-16T17:28:55.243Z,26.62
2018-05-16T17:31:21.921Z,26.60
2018-05-16T17:33:48.555Z,26.68
2018-05-16T17:36:17.756Z,26.82
2018-05-16T17:38:44.397Z,26.91
2018-05-16T17:41:11.031Z,26.81
2018-05-16T17:43:41.106Z,26.80
2018-05-16T17:46:07.855Z,26.93
2018-05-16T17:48:34.446Z,27.06
2018-05-16T17:51:01.077Z,27.10
2018-05-16T17:53:27.722Z,27.20
2018-05-16T17:55:54.355Z,27.25
2018-05-16T17:58:20.994Z,27.27
2018-05-16T18:00:47.678Z,27.64
2018-05-16T18:03:14.306Z,27.73
2018-05-16T18:05:40.944Z,27.99
2018-05-16T18:08:07.586Z,28.26
2018-05-16T18:10:34.224Z,28.48
2018-05-16T18:13:00.869Z,28.61
2018-05-16T18:15:27.546Z,29.04
2018-05-16T18:17:54.181Z,29.08
2018-05-16T18:20:20.824Z,29.35
2018-05-16T18:22:47.511Z,29.58
2018-05-16T18:25:14.146Z,29.65
2018-05-16T18:27:40.845Z,29.94
2018-05-16T18:30:07.491Z,30.17
2018-05-16T18:32:34.151Z,30.25
2018-05-16T18:35:00.845Z,30.57
2018-05-16T18:37:27.480Z,30.62
2018-05-16T18:39:54.219Z,30.87
2018-05-16T18:42:20.855Z,30.92
2018-05-16T18:44:47.465Z,31.21
2018-05-16T18:47:14.101Z,31.25
2018-05-16T18:49:40.745Z,31.44
2018-05-16T18:52:07.381Z,31.48
2018-05-16T18:54:34.032Z,31.60
2018-05-16T18:57:00.671Z,31.71
2018-05-16T18:59:27.315Z,31.82
2018-05-16T19:01:53.957Z,31.90
2018-05-16T19:04:20.599Z,32.02
2018-05-16T19:06:47.313Z,32.18
2018-05-16T19:09:13.875Z,32.20
2018-05-16T19:11:40.506Z,32.29
2018-05-16T19:14:07.154Z,32.52
2018-05-16T19:16:33.789Z,32.53
2018-05-16T19:19:00.480Z,32.59
2018-05-16T19:21:27.117Z,32.76
2018-05-16T19:23:53.745Z,32.77
2018-05-16T19:26:20.423Z,32.92
2018-05-16T19:28:47.104Z,32.99
2018-05-16T19:31:13.756Z,33.14
2018-05-16T19:33:40.393Z,33.17
2018-05-16T19:36:07.093Z,33.19
2018-05-16T19:38:33.848Z,33.23
2018-05-16T19:41:00.478Z,33.36
2018-05-16T19:43:27.110Z,33.47
2018-05-16T19:45:53.794Z,33.60
2018-05-16T19:48:20.437Z,33.57
2018-05-16T19:50:47.069Z,33.69
2018-05-16T19:53:13.762Z,33.73
2018-05-16T19:55:41.782Z,33.73
2018-05-16T19:58:07.225Z,33.79
2018-05-16T20:00:33.830Z,33.79
2018-05-16T20:03:00.474Z,33.82
2018-05-16T20:05:27.121Z,33.89
2018-05-16T20:07:56.043Z,33.86
2018-05-16T20:10:20.437Z,33.90
2018-05-16T20:12:47.107Z,33.87
2018-05-16T20:15:13.714Z,33.94
2018-05-16T20:17:40.442Z,33.94
2018-05-16T20:20:07.156Z,33.94
2018-05-16T20:22:33.788Z,33.95
2018-05-16T20:25:00.463Z,33.99
2018-05-16T20:27:27.143Z,33.96
2018-05-16T20:29:53.861Z,33.97
2018-05-16T20:32:20.515Z,34.04
2018-05-16T20:34:47.152Z,34.08
2018-05-16T20:37:13.803Z,34.08
2018-05-16T20:39:40.456Z,34.06
2018-05-16T20:42:07.103Z,34.08
2018-05-16T20:44:33.787Z,34.08
2018-05-16T20:47:00.421Z,34.06
2018-05-16T20:49:27.052Z,34.06
2018-05-16T20:51:53.699Z,34.13
2018-05-16T20:54:20.329Z,34.11
2018-05-16T20:56:47.018Z,34.13
2018-05-16T20:59:13.657Z,34.14
2018-05-16T21:01:40.360Z,34.17
2018-05-16T21:04:06.986Z,34.20
2018-05-16T21:06:33.616Z,34.17
2018-05-16T21:09:00.296Z,34.20
2018-05-16T21:11:26.936Z,34.19
2018-05-16T21:13:53.618Z,34.23
2018-05-16T21:16:20.247Z,34.19
2018-05-16T21:18:46.886Z,34.21
2018-05-16T21:21:13.538Z,34.26
2018-05-16T21:23:40.174Z,34.24
2018-05-16T21:26:06.854Z,34.25
2018-05-16T21:28:33.484Z,34.29
2018-05-16T21:31:00.118Z,34.28
2018-05-16T21:33:26.762Z,34.27
2018-05-16T21:35:53.441Z,34.27
2018-05-16T21:38:20.074Z,34.30
2018-05-16T21:40:46.749Z,34.35
2018-05-16T21:43:13.432Z,34.32
2018-05-16T21:45:40.094Z,34.31
2018-05-16T21:48:06.732Z,34.32
2018-05-16T21:50:33.400Z,34.34
2018-05-16T21:53:00.034Z,34.36
2018-05-16T21:55:26.672Z,34.41
2018-05-16T21:57:53.387Z,34.42
2018-05-16T22:00:20.065Z,34.43
2018-05-16T22:02:46.751Z,34.44
2018-05-16T22:05:13.436Z,34.41
2018-05-16T22:07:40.070Z,34.44
2018-05-16T22:10:06.715Z,34.46
2018-05-16T22:12:33.386Z,34.44
2018-05-16T22:15:00.059Z,34.42
2018-05-16T22:17:26.694Z,34.48
2018-05-16T22:19:53.364Z,34.45
2018-05-16T22:22:19.970Z,34.51
2018-05-16T22:24:46.633Z,34.55
2018-05-16T22:27:13.280Z,34.53
2018-05-16T22:29:39.922Z,34.56
2018-05-16T22:32:06.604Z,34.60
2018-05-16T22:34:33.238Z,34.55
2018-05-16T22:36:59.912Z,34.57
2018-05-16T22:39:26.542Z,34.63
2018-05-16T22:41:53.181Z,34.60
2018-05-16T22:44:19.813Z,34.60
2018-05-16T22:46:46.464Z,34.62
2018-05-16T22:49:13.140Z,34.66
2018-05-16T22:51:39.774Z,34.61
2018-05-16T22:54:06.457Z,34.66
2018-05-16T22:56:33.102Z,34.66
2018-05-16T22:58:59.746Z,34.67
2018-05-16T23:01:26.390Z,34.71
2018-05-16T23:03:53.065Z,34.71
2018-05-16T23:06:19.783Z,34.67
2018-05-16T23:08:46.385Z,34.76
2018-05-16T23:11:13.025Z,34.76
2018-05-16T23:13:39.663Z,34.77
2018-05-16T23:16:06.373Z,34.84
2018-05-16T23:18:32.990Z,34.81
2018-05-16T23:20:59.628Z,34.78
2018-05-16T23:23:26.307Z,34.78
2018-05-16T23:25:52.944Z,34.89
2018-05-16T23:28:19.618Z,34.83
2018-05-16T23:30:46.326Z,34.90
2018-05-16T23:33:12.929Z,34.90
2018-05-16T23:35:39.573Z,34.90
2018-05-16T23:38:06.206Z,34.94
2018-05-16T23:40:32.916Z,34.96
2018-05-16T23:42:59.559Z,35.01
2018-05-16T23:45:26.208Z,35.05
2018-05-16T23:47:52.843Z,35.03
2018-05-16T23:50:19.481Z,35.08
2018-05-16T23:52:46.131Z,35.07
2018-05-16T23:55:12.769Z,35.12
2018-05-16T23:57:39.414Z,35.15
